createdAt,value
2024-03-08T00:01:50.694Z,26.55
2024-03-08T00:06:52.673Z,29.45
2024-03-08T00:11:55.862Z,29.73
2024-03-08T00:16:57.648Z,28.10
2024-03-08T00:21:59.431Z,30.90
2024-03-08T00:27:02.617Z,30.08
2024-03-08T00:32:04.685Z,30.02
2024-03-08T00:37:06.571Z,26.95
2024-03-08T00:42:09.758Z,29.33
2024-03-08T00:47:11.820Z,28.70
2024-03-08T00:52:13.641Z,28.35
2024-03-08T00:57:17.013Z,29.02
2024-03-08T01:02:18.971Z,28.85
2024-03-08T01:07:20.704Z,29.77
2024-03-08T01:12:23.806Z,28.75
2024-03-08T01:17:25.613Z,26.02
2024-03-08T01:22:27.363Z,27.17
2024-03-08T01:27:30.545Z,28.23
2024-03-08T01:32:32.482Z,28.98
2024-03-08T01:37:34.265Z,28.80
2024-03-08T01:42:37.434Z,30.27
2024-03-08T01:47:39.866Z,29.37
2024-03-08T01:52:41.828Z,29.20
2024-03-08T01:57:45.187Z,28.77
2024-03-08T02:02:47.750Z,30.05
2024-03-08T02:07:49.723Z,28.65
2024-03-08T02:12:52.936Z,30.20
2024-03-08T02:17:54.769Z,29.85
2024-03-08T02:22:58.164Z,31.42
2024-03-08T02:27:59.933Z,30.27
2024-03-08T02:33:01.913Z,28.80
2024-03-08T02:38:05.296Z,28.52
2024-03-08T02:43:07.025Z,28.27
2024-03-08T02:48:09.816Z,28.42
2024-03-08T02:53:13.875Z,28.12
2024-03-08T02:58:16.107Z,27.13
2024-03-08T03:03:18.099Z,30.67
2024-03-08T03:08:21.327Z,27.98
2024-03-08T03:13:23.083Z,31.70
2024-03-08T03:18:25.006Z,31.20
2024-03-08T03:23:28.379Z,31.17
2024-03-08T03:28:30.233Z,30.12
2024-03-08T03:33:32.048Z,29.70
2024-03-08T03:38:35.245Z,28.42
2024-03-08T03:43:37.091Z,28.65
2024-03-08T03:48:38.953Z,31.00
2024-03-08T03:53:42.310Z,30.58
2024-03-08T03:58:44.124Z,31.30
2024-03-08T04:03:45.891Z,32.75
2024-03-08T04:08:49.132Z,29.92
2024-03-08T04:13:50.995Z,29.80
2024-03-08T04:18:52.880Z,30.60
2024-03-08T04:23:55.982Z,29.85
2024-03-08T04:28:57.757Z,28.67
2024-03-08T04:33:59.570Z,31.65
2024-03-08T04:39:02.729Z,30.55
2024-03-08T04:44:04.725Z,30.98
2024-03-08T04:49:06.533Z,31.05
2024-03-08T04:54:09.743Z,29.67
2024-03-08T04:59:11.559Z,33.88
2024-03-08T05:04:13.508Z,30.30
2024-03-08T05:09:16.871Z,28.80
2024-03-08T05:14:18.700Z,32.00
2024-03-08T05:19:21.384Z,30.67
2024-03-08T05:24:24.592Z,30.27
2024-03-08T05:29:26.368Z,30.35
2024-03-08T05:34:28.159Z,31.33
2024-03-08T05:39:31.399Z,34.42
2024-03-08T05:44:33.226Z,30.70
2024-03-08T05:49:35.086Z,29.33
2024-03-08T05:54:38.298Z,31.10
2024-03-08T05:59:40.151Z,32.95
2024-03-08T06:04:41.925Z,29.17
2024-03-08T06:09:45.043Z,30.88
2024-03-08T06:14:46.785Z,29.48
2024-03-08T06:19:48.576Z,31.52
2024-03-08T06:24:51.749Z,31.10
2024-03-08T06:29:53.551Z,28.55
2024-03-08T06:34:55.380Z,33.25
2024-03-08T06:39:58.574Z,34.60
2024-03-08T06:45:00.618Z,31.80
2024-03-08T06:50:02.809Z,33.53
2024-03-08T06:55:07.063Z,30.95
2024-03-08T07:00:10.240Z,31.85
2024-03-08T07:05:12.877Z,32.35
2024-03-08T07:10:16.103Z,31.30
2024-03-08T07:15:18.053Z,30.58
2024-03-08T07:20:20.133Z,34.17
2024-03-08T07:25:23.953Z,35.83
2024-03-08T07:30:29.998Z,28.23
2024-03-08T07:35:32.524Z,30.02
2024-03-08T07:40:38.332Z,31.40
2024-03-08T07:45:40.379Z,29.98
2024-03-08T07:50:42.357Z,32.05
2024-03-08T07:55:45.510Z,31.10
2024-03-08T08:00:47.379Z,33.95
2024-03-08T08:05:49.159Z,28.27
2024-03-08T08:10:52.287Z,32.72
2024-03-08T08:15:54.180Z,30.37
2024-03-08T08:20:55.967Z,30.88
2024-03-08T08:25:59.287Z,30.12
2024-03-08T08:31:01.197Z,29.85
2024-03-08T08:36:03.147Z,31.23
2024-03-08T08:41:06.903Z,28.73
2024-03-08T08:46:08.661Z,30.17
2024-03-08T08:51:11.136Z,28.75
2024-03-08T08:56:14.318Z,28.42
2024-03-08T09:01:16.447Z,32.45
2024-03-08T09:06:18.361Z,28.10
2024-03-08T09:11:21.679Z,29.52
2024-03-08T09:16:23.523Z,26.52
2024-03-08T09:21:25.303Z,27.08
2024-03-08T09:26:29.857Z,28.77
2024-03-08T09:36:33.728Z,25.52
2024-03-08T09:41:37.209Z,26.87
2024-03-08T09:46:39.545Z,26.55
2024-03-08T09:51:41.621Z,26.48
2024-03-08T09:56:45.908Z,26.48
2024-03-08T10:01:47.833Z,28.43
2024-03-08T10:06:49.755Z,26.35
2024-03-08T10:11:56.169Z,27.40
2024-03-08T10:16:59.009Z,26.58
2024-03-08T10:22:01.144Z,27.02
2024-03-08T10:27:04.767Z,28.87
2024-03-08T10:32:08.301Z,24.20
2024-03-08T10:37:22.223Z,25.75
2024-03-08T10:42:29.789Z,27.75
2024-03-08T10:47:35.057Z,27.95
2024-03-08T10:52:37.011Z,28.15
2024-03-08T10:57:41.648Z,26.67
2024-03-08T11:02:45.187Z,28.70
2024-03-08T11:07:47.083Z,24.75
2024-03-08T11:12:50.311Z,25.50
2024-03-08T11:17:52.397Z,26.02
2024-03-08T11:22:55.742Z,25.42
2024-03-08T11:28:10.881Z,26.65
2024-03-08T11:33:14.127Z,25.25
2024-03-08T11:38:15.914Z,24.55
2024-03-08T11:43:19.165Z,29.63
2024-03-08T11:48:21.083Z,28.05
2024-03-08T11:53:22.904Z,28.05
2024-03-08T11:58:26.011Z,27.45
2024-03-08T12:03:27.755Z,26.58
2024-03-08T12:08:29.536Z,28.40
2024-03-08T12:13:33.897Z,27.13
2024-03-08T12:18:38.258Z,27.67
2024-03-08T12:23:41.905Z,26.37
2024-03-08T12:28:49.029Z,27.23
2024-03-08T12:33:54.501Z,25.77
2024-03-08T12:38:59.894Z,27.05
2024-03-08T12:44:03.536Z,27.37
2024-03-08T12:49:05.384Z,27.40
2024-03-08T12:54:08.244Z,25.33
2024-03-08T12:59:12.029Z,25.17
2024-03-08T13:04:13.954Z,26.85
2024-03-08T13:09:15.712Z,27.27
2024-03-08T13:14:18.853Z,27.95
2024-03-08T13:19:20.773Z,24.65
2024-03-08T13:24:22.587Z,23.85
2024-03-08T13:29:25.787Z,26.30
2024-03-08T13:34:27.530Z,23.20
2024-03-08T13:39:29.342Z,26.27
2024-03-08T13:44:32.510Z,26.12
2024-03-08T13:49:34.347Z,27.27
2024-03-08T13:54:36.213Z,26.33
2024-03-08T13:59:39.376Z,26.60
2024-03-08T14:04:41.233Z,26.25
2024-03-08T14:09:43.169Z,26.23
2024-03-08T14:14:46.487Z,25.83
2024-03-08T14:19:48.312Z,26.05
2024-03-08T14:24:50.067Z,25.08
2024-03-08T14:29:53.196Z,26.48
2024-03-08T14:34:57.095Z,24.50
2024-03-08T14:39:59.028Z,25.67
2024-03-08T14:45:02.215Z,25.65
2024-03-08T14:50:04.408Z,25.58
2024-03-08T14:55:06.838Z,25.58
2024-03-08T15:00:10.985Z,25.70
2024-03-08T15:05:14.739Z,27.37
2024-03-08T15:10:16.641Z,24.10
2024-03-08T15:15:19.885Z,26.40
2024-03-08T15:20:21.793Z,26.37
2024-03-08T15:25:23.589Z,27.15
2024-03-08T15:30:26.797Z,24.10
2024-03-08T15:35:28.566Z,24.25
2024-03-08T15:40:30.365Z,24.30
2024-03-08T15:45:33.497Z,25.45
2024-03-08T15:50:35.301Z,26.62
2024-03-08T15:55:37.175Z,24.33
2024-03-08T16:00:40.277Z,27.35
2024-03-08T16:05:42.615Z,26.10
2024-03-08T16:10:45.650Z,21.17
2024-03-08T16:15:52.204Z,24.12
2024-03-08T16:20:55.356Z,22.55
2024-03-08T16:25:57.603Z,24.42
2024-03-08T16:31:00.831Z,22.40
2024-03-08T16:36:02.909Z,23.50
2024-03-08T16:41:05.012Z,23.67
2024-03-08T16:46:08.332Z,24.48
2024-03-08T16:51:10.355Z,23.70
2024-03-08T16:56:12.192Z,23.83
2024-03-08T17:01:15.396Z,25.15
2024-03-08T17:06:17.519Z,24.65
2024-03-08T17:11:21.953Z,24.30
2024-03-08T17:16:26.463Z,24.95
2024-03-08T17:21:28.588Z,23.17
2024-03-08T17:26:30.374Z,23.25
2024-03-08T17:31:33.726Z,22.95
2024-03-08T17:36:35.646Z,25.73
2024-03-08T17:41:37.536Z,24.70
2024-03-08T17:46:40.790Z,24.20
2024-03-08T17:51:42.645Z,26.37
2024-03-08T17:56:44.872Z,24.25
2024-03-08T18:01:48.130Z,24.25
2024-03-08T18:06:52.931Z,23.62
2024-03-08T18:11:55.593Z,24.65
2024-03-08T18:16:58.837Z,24.37
2024-03-08T18:22:00.703Z,24.52
2024-03-08T18:27:02.486Z,24.48
2024-03-08T18:32:06.555Z,23.65
2024-03-08T18:37:08.328Z,26.63
2024-03-08T18:42:10.171Z,25.90
2024-03-08T18:47:13.381Z,25.35
2024-03-08T18:52:15.218Z,25.92
2024-03-08T18:57:17.090Z,25.70
2024-03-08T19:02:20.328Z,25.27
2024-03-08T19:07:22.139Z,25.70
2024-03-08T19:12:24.329Z,25.98
2024-03-08T19:17:27.501Z,26.55
2024-03-08T19:22:29.355Z,27.85
2024-03-08T19:27:31.077Z,25.17
2024-03-08T19:32:34.256Z,26.15
2024-03-08T19:37:36.807Z,27.37
2024-03-08T19:42:38.676Z,25.48
2024-03-08T19:47:41.825Z,26.40
2024-03-08T19:52:45.468Z,26.55
2024-03-08T19:57:50.727Z,26.55
2024-03-08T20:02:55.826Z,25.23
2024-03-08T20:07:58.529Z,26.73
2024-03-08T20:13:00.304Z,24.37
2024-03-08T20:18:03.585Z,25.25
2024-03-08T20:23:05.614Z,27.90
2024-03-08T20:28:07.590Z,25.80
2024-03-08T20:33:11.329Z,26.75
2024-03-08T20:38:13.121Z,27.00
2024-03-08T20:43:15.313Z,28.08
2024-03-08T20:48:18.703Z,26.98
2024-03-08T20:53:20.938Z,27.08
2024-03-08T20:58:23.241Z,26.58
2024-03-08T21:03:26.754Z,26.27
2024-03-08T21:08:29.253Z,27.10
2024-03-08T21:13:31.434Z,28.23
2024-03-08T21:18:34.555Z,26.77
2024-03-08T21:23:36.409Z,28.75
2024-03-08T21:28:38.543Z,29.63
2024-03-08T21:33:41.716Z,30.08
2024-03-08T21:38:43.728Z,27.00
2024-03-08T21:43:45.544Z,27.25
2024-03-08T21:48:48.841Z,26.65
2024-03-08T21:53:50.581Z,28.33
2024-03-08T21:58:52.409Z,27.75
2024-03-08T22:03:55.673Z,29.30
2024-03-08T22:08:57.496Z,28.77
2024-03-08T22:13:59.323Z,27.87
2024-03-08T22:19:02.533Z,27.50
2024-03-08T22:24:04.805Z,29.50
2024-03-08T22:29:06.620Z,26.62
2024-03-08T22:34:09.727Z,27.52
2024-03-08T22:39:11.526Z,28.20
2024-03-08T22:44:13.342Z,27.02
2024-03-08T22:49:16.511Z,25.67
2024-03-08T22:54:18.428Z,27.50
2024-03-08T22:59:20.190Z,27.80
2024-03-08T23:04:23.306Z,26.55
2024-03-08T23:09:25.148Z,28.95
2024-03-08T23:14:26.974Z,28.80
2024-03-08T23:19:30.171Z,27.62
2024-03-08T23:24:31.975Z,29.27
2024-03-08T23:29:33.782Z,29.17
2024-03-08T23:34:36.887Z,28.65
2024-03-08T23:39:38.718Z,25.85
2024-03-08T23:44:41.957Z,28.02
2024-03-08T23:49:45.190Z,25.75
2024-03-08T23:54:46.970Z,29.08
2024-03-08T23:59:48.689Z,29.85
